Accueil
METAR-TAF:

METAR-TAF

Aéroports :

Pau, France

Aéroport de Pau-Pyrénées

latitude: 43-23N, longitude: 000-25W, altitude: 188 m

Observation

Le bulletin a été fait il y a 31 minutes, à 10:30 UTC
Vent 4 kt de sud-est
Température 16°C
Humidité 45%
Pression 1012 hPa
Visibilité 10 km ou plus
pas de nuages en-dessous de 1500 mètres et pas de cumulonimbus.

METAR: LFBP 221030Z AUTO 13004KT CAVOK 16/04 Q1012 NOSIG

Heure: 12:01 (11:01 UTC)

Prévision

Le bulletin a été fait il y a 6 heures et 1 minutes, à 05:00 UTC
Prévision valable du 22 à 06 UTC au 23 à 06 UTC
Vent 5 kt de est/sud-est
Visibilité 10 km ou plus
pas de nuages en-dessous de 1500 mètres et pas de cumulonimbus.
Temporairement
du 22 à 22 UTC au 23 à 06 UTC
Vent 15 kt de sud/sud-ouest avec des rafales jusqu'à 25 kt

TAF: LFBP 220500Z 2206/2306 12005KT CAVOK TEMPO 2222/2306 21015G25KT

Observations et prévisions météorologiques de plus de 4000 aéroports (messages METAR et TAF).

Les stations disponibles sont représentées par des disques jaunes et rouges sur la carte.

Passer la souris dessus pour voir le nom de la station.

Cliquer dessus pour voir les observations et prévisions météorologiques.

Pour changer de carte: cliquez sur les boutons verts avec une croix noire pour zoomer, sur le bouton vert avec un tiret pour effectuer un zoom arrière, ou sur les flèches vertes pour les cartes adjacentes.


METAR-TAF: